createdAt,value
2022-09-25T00:01:20.534Z,13.75
2022-09-25T00:03:49.063Z,13.23
2022-09-25T00:06:20.726Z,13.82
2022-09-25T00:08:49.123Z,13.35
2022-09-25T00:11:19.698Z,13.40
2022-09-25T00:13:49.616Z,13.23
2022-09-25T00:16:20.327Z,13.02
2022-09-25T00:19:10.217Z,13.50
2022-09-25T00:21:39.222Z,13.18
2022-09-25T00:24:09.693Z,12.60
2022-09-25T00:26:44.130Z,11.93
2022-09-25T00:29:17.407Z,12.10
2022-09-25T00:31:45.528Z,12.65
2022-09-25T00:34:13.418Z,12.60
2022-09-25T00:36:41.699Z,11.82
2022-09-25T00:39:09.650Z,11.88
2022-09-25T00:41:40.372Z,11.95
2022-09-25T00:44:41.727Z,11.18
2022-09-25T00:47:16.839Z,11.43
2022-09-25T00:49:45.719Z,11.05
2022-09-25T00:52:14.541Z,11.25
2022-09-25T00:54:46.840Z,9.90
2022-09-25T00:57:19.341Z,10.40
2022-09-25T00:59:53.953Z,10.18
2022-09-25T01:02:28.397Z,10.43
2022-09-25T01:04:59.162Z,11.95
2022-09-25T01:07:27.408Z,10.60
2022-09-25T01:10:02.920Z,10.52
2022-09-25T01:12:31.072Z,10.68
2022-09-25T01:14:59.004Z,10.45
2022-09-25T01:17:35.004Z,11.25
2022-09-25T01:20:15.926Z,10.40
2022-09-25T01:22:58.828Z,10.93
2022-09-25T01:25:36.887Z,10.68
2022-09-25T01:28:19.543Z,10.68
2022-09-25T01:30:54.098Z,10.60
2022-09-25T01:33:31.901Z,9.70
2022-09-25T01:36:06.770Z,10.45
2022-09-25T01:38:39.466Z,10.80
2022-09-25T01:41:11.900Z,9.93
2022-09-25T01:43:44.362Z,11.65
2022-09-25T01:46:18.294Z,10.65
2022-09-25T01:48:49.904Z,10.32
2022-09-25T01:51:22.693Z,10.82
2022-09-25T01:53:55.119Z,10.73
2022-09-25T01:56:33.378Z,10.93
2022-09-25T01:59:07.053Z,10.07
2022-09-25T02:01:41.462Z,10.25
2022-09-25T02:04:15.309Z,10.75
2022-09-25T02:06:47.302Z,11.02
2022-09-25T02:09:19.047Z,10.40
2022-09-25T02:11:52.438Z,10.93
2022-09-25T02:14:23.520Z,11.00
2022-09-25T02:16:59.903Z,10.35
2022-09-25T02:19:45.848Z,10.40
2022-09-25T02:22:20.070Z,11.38
2022-09-25T02:24:58.446Z,10.63
2022-09-25T02:27:29.778Z,10.73
2022-09-25T02:29:59.362Z,11.20
2022-09-25T02:32:32.472Z,10.27
2022-09-25T02:35:01.196Z,9.85
2022-09-25T02:37:30.911Z,10.43
2022-09-25T02:40:02.228Z,11.07
2022-09-25T02:42:39.797Z,10.38
2022-09-25T02:45:29.912Z,9.93
2022-09-25T02:48:08.484Z,10.40
2022-09-25T02:50:43.368Z,9.23
2022-09-25T02:53:18.588Z,9.70
2022-09-25T02:55:52.898Z,10.10
2022-09-25T02:58:28.503Z,9.75
2022-09-25T03:00:58.546Z,10.20
2022-09-25T03:03:29.477Z,9.68
2022-09-25T03:05:58.690Z,9.60
2022-09-25T03:08:42.078Z,9.75
2022-09-25T03:11:12.503Z,9.80
2022-09-25T03:13:41.835Z,9.32
2022-09-25T03:16:15.900Z,10.23
2022-09-25T03:18:46.424Z,9.05
2022-09-25T03:21:14.530Z,10.35
2022-09-25T03:23:42.535Z,10.32
2022-09-25T03:26:10.755Z,9.48
2022-09-25T03:28:38.790Z,9.95
2022-09-25T03:31:08.783Z,10.32
2022-09-25T03:33:38.419Z,10.15
2022-09-25T03:36:11.931Z,10.52
2022-09-25T03:38:41.366Z,10.05
2022-09-25T03:41:12.981Z,9.60
2022-09-25T03:43:43.708Z,10.48
2022-09-25T03:46:14.348Z,9.48
2022-09-25T03:48:43.247Z,9.57
2022-09-25T03:51:12.797Z,9.85
2022-09-25T03:53:41.438Z,9.95
2022-09-25T03:56:13.032Z,10.65
2022-09-25T03:58:41.532Z,10.32
2022-09-25T04:01:11.097Z,9.48
2022-09-25T04:03:40.215Z,10.90
2022-09-25T04:06:10.080Z,9.68
2022-09-25T04:08:39.492Z,10.45
2022-09-25T04:11:07.666Z,11.15
2022-09-25T04:13:37.497Z,10.00
2022-09-25T04:16:08.245Z,10.75
2022-09-25T04:18:36.926Z,9.75
2022-09-25T04:21:07.911Z,10.40
2022-09-25T04:23:36.737Z,10.07
2022-09-25T04:26:06.494Z,9.77
2022-09-25T04:28:34.646Z,10.45
2022-09-25T04:31:03.877Z,9.90
2022-09-25T04:33:49.215Z,10.05
2022-09-25T04:36:18.961Z,9.75
2022-09-25T04:38:48.021Z,9.80
2022-09-25T04:41:31.266Z,9.73
2022-09-25T04:43:59.551Z,9.88
2022-09-25T04:46:27.648Z,9.70
2022-09-25T04:48:55.578Z,9.90
2022-09-25T04:51:23.954Z,9.75
2022-09-25T04:53:52.076Z,11.45
2022-09-25T04:56:21.593Z,10.57
2022-09-25T04:58:51.073Z,10.35
2022-09-25T05:01:21.765Z,10.27
2022-09-25T05:03:53.732Z,9.85
2022-09-25T05:06:23.040Z,9.63
2022-09-25T05:08:51.931Z,10.88
2022-09-25T05:11:21.591Z,10.40
2022-09-25T05:13:51.456Z,9.80
2022-09-25T05:16:20.080Z,10.27
2022-09-25T05:18:48.201Z,9.18
2022-09-25T05:21:16.059Z,10.55
2022-09-25T05:23:43.989Z,10.27
2022-09-25T05:26:12.047Z,10.82
2022-09-25T05:28:43.259Z,11.18
2022-09-25T05:31:11.259Z,10.52
2022-09-25T05:33:39.290Z,10.80
2022-09-25T05:36:09.129Z,11.23
2022-09-25T05:38:39.094Z,10.15
2022-09-25T05:41:08.815Z,10.55
2022-09-25T05:43:42.852Z,10.85
2022-09-25T05:46:12.172Z,10.68
2022-09-25T05:48:40.967Z,9.70
2022-09-25T05:51:09.470Z,10.75
2022-09-25T05:53:38.354Z,10.18
2022-09-25T05:56:06.999Z,10.38
2022-09-25T05:58:35.930Z,9.63
2022-09-25T06:01:07.256Z,10.57
2022-09-25T06:03:37.474Z,11.25
2022-09-25T06:06:05.753Z,9.98
2022-09-25T06:08:35.113Z,10.40
2022-09-25T06:11:03.600Z,10.48
2022-09-25T06:13:34.869Z,10.93
2022-09-25T06:16:03.650Z,9.90
2022-09-25T06:18:33.955Z,10.85
2022-09-25T06:21:03.720Z,10.80
2022-09-25T06:23:32.024Z,10.77
2022-09-25T06:26:03.573Z,9.73
2022-09-25T06:28:33.459Z,11.20
2022-09-25T06:31:02.280Z,10.32
2022-09-25T06:33:30.948Z,10.60
2022-09-25T06:36:00.826Z,10.15
2022-09-25T06:38:31.561Z,10.40
2022-09-25T06:41:00.880Z,10.63
2022-09-25T06:43:29.422Z,10.52
2022-09-25T06:46:02.622Z,10.75
2022-09-25T06:48:31.390Z,11.95
2022-09-25T06:51:02.006Z,9.88
2022-09-25T06:53:31.326Z,9.82
2022-09-25T06:56:00.915Z,10.20
2022-09-25T06:58:30.634Z,8.88
2022-09-25T07:00:59.196Z,9.65
2022-09-25T07:03:44.470Z,9.45
2022-09-25T07:06:16.227Z,8.35
2022-09-25T07:08:44.786Z,8.25
2022-09-25T07:11:15.422Z,7.20
2022-09-25T07:13:43.950Z,6.03
2022-09-25T07:16:17.567Z,5.70
2022-09-25T07:18:46.731Z,6.13
2022-09-25T07:21:17.780Z,5.43
2022-09-25T07:23:48.788Z,5.57
2022-09-25T07:26:22.546Z,5.05
2022-09-25T07:28:55.996Z,5.18
2022-09-25T07:31:26.043Z,4.57
2022-09-25T07:33:54.476Z,4.70
2022-09-25T07:36:24.683Z,4.35
2022-09-25T07:38:55.762Z,4.43
2022-09-25T07:41:27.732Z,4.18
2022-09-25T07:46:46.125Z,3.88
2022-09-25T07:49:18.131Z,4.15
2022-09-25T07:51:47.546Z,3.63
2022-09-25T07:54:15.559Z,3.97
2022-09-25T07:56:43.775Z,3.70
2022-09-25T07:59:14.652Z,3.50
2022-09-25T08:01:44.957Z,3.03
2022-09-25T08:04:14.616Z,3.40
2022-09-25T08:06:42.510Z,3.13
2022-09-25T08:09:13.164Z,3.13
2022-09-25T08:11:42.382Z,2.80
2022-09-25T08:14:10.437Z,2.80
2022-09-25T08:16:38.444Z,2.83
2022-09-25T08:19:06.443Z,2.47
2022-09-25T08:21:36.753Z,2.60
2022-09-25T08:24:05.714Z,2.67
2022-09-25T08:26:36.887Z,2.42
2022-09-25T08:29:09.370Z,2.35
2022-09-25T08:31:37.477Z,2.35
2022-09-25T08:34:28.183Z,2.60
2022-09-25T08:36:53.493Z,2.28
2022-09-25T08:39:21.433Z,2.47
2022-09-25T08:41:55.202Z,2.20
2022-09-25T08:44:29.748Z,2.00
2022-09-25T08:47:19.839Z,1.98
2022-09-25T08:50:02.234Z,1.80
2022-09-25T08:52:31.743Z,1.63
2022-09-25T08:54:59.885Z,1.70
2022-09-25T08:57:35.640Z,1.90
2022-09-25T09:00:09.092Z,1.50
2022-09-25T09:02:45.428Z,1.70
2022-09-25T09:05:20.675Z,1.70
2022-09-25T09:07:55.276Z,1.77
2022-09-25T09:10:31.533Z,1.50
2022-09-25T09:13:07.289Z,1.77
2022-09-25T09:15:41.894Z,1.75
2022-09-25T09:18:20.114Z,1.73
2022-09-25T09:20:53.367Z,1.48
2022-09-25T09:23:23.530Z,1.30
2022-09-25T09:26:01.409Z,1.55
2022-09-25T09:29:02.983Z,1.50
2022-09-25T09:31:41.825Z,1.40
2022-09-25T09:35:01.057Z,1.30
2022-09-25T09:37:40.117Z,1.30
2022-09-25T09:40:26.131Z,1.30
2022-09-25T09:43:11.081Z,1.35
2022-09-25T09:45:47.494Z,1.25
2022-09-25T09:48:21.254Z,1.00
2022-09-25T09:50:53.245Z,1.10
2022-09-25T09:53:35.503Z,1.20
2022-09-25T09:56:09.284Z,1.00
2022-09-25T09:58:46.046Z,1.15
2022-09-25T10:01:39.649Z,1.10
2022-09-25T10:04:10.666Z,0.90
2022-09-25T10:06:43.464Z,1.00
2022-09-25T10:09:16.817Z,1.00
2022-09-25T10:11:53.223Z,1.20
2022-09-25T10:14:27.026Z,1.20
2022-09-25T10:16:58.535Z,1.20
2022-09-25T10:19:32.535Z,1.10
2022-09-25T10:22:16.443Z,1.40
2022-09-25T10:24:51.857Z,1.35
2022-09-25T10:27:29.733Z,1.30
2022-09-25T10:30:14.465Z,1.30
2022-09-25T10:32:57.814Z,1.40
2022-09-25T10:35:30.974Z,1.60
2022-09-25T10:38:02.003Z,1.50
2022-09-25T10:40:33.488Z,1.77
2022-09-25T10:43:17.782Z,1.58
2022-09-25T10:45:46.224Z,1.45
2022-09-25T10:48:49.947Z,1.27
2022-09-25T10:51:20.005Z,1.30
2022-09-25T10:53:49.459Z,1.40
2022-09-25T10:56:21.664Z,1.40
2022-09-25T10:58:58.132Z,1.25
2022-09-25T11:01:36.423Z,1.38
2022-09-25T11:04:13.688Z,1.52
2022-09-25T11:06:46.258Z,1.45
2022-09-25T11:09:19.755Z,1.40
2022-09-25T11:11:49.643Z,1.58
2022-09-25T11:14:25.097Z,1.27
2022-09-25T11:16:57.818Z,1.40
2022-09-25T11:19:29.956Z,1.40
2022-09-25T11:22:08.208Z,1.38
2022-09-25T11:24:51.391Z,1.30
2022-09-25T11:27:26.272Z,1.60
2022-09-25T11:30:04.225Z,1.15
2022-09-25T11:32:42.734Z,1.13
2022-09-25T11:35:29.894Z,1.30
2022-09-25T11:38:06.308Z,1.10
2022-09-25T11:41:18.048Z,1.00
2022-09-25T11:44:02.984Z,1.08
2022-09-25T11:46:40.508Z,1.10
2022-09-25T11:49:18.381Z,1.17
2022-09-25T11:52:20.229Z,1.33
2022-09-25T11:55:16.104Z,1.33
2022-09-25T11:57:56.515Z,0.90
2022-09-25T12:00:28.575Z,1.02
2022-09-25T12:03:27.478Z,1.10
2022-09-25T12:06:32.420Z,1.10
2022-09-25T12:09:19.953Z,1.30
2022-09-25T12:11:57.541Z,1.20
2022-09-25T12:14:33.640Z,1.30
2022-09-25T12:17:10.262Z,1.40
2022-09-25T12:19:46.042Z,1.45
2022-09-25T12:22:21.576Z,1.25
2022-09-25T12:25:00.938Z,1.30
2022-09-25T12:27:42.131Z,1.38
2022-09-25T12:30:18.584Z,1.20
2022-09-25T12:33:04.150Z,1.27
2022-09-25T12:35:41.981Z,1.33
2022-09-25T12:38:19.994Z,1.55
2022-09-25T12:40:55.660Z,1.50
2022-09-25T12:43:45.074Z,1.35
2022-09-25T12:46:24.105Z,1.33
2022-09-25T12:48:57.802Z,1.52
2022-09-25T12:51:34.117Z,1.40
2022-09-25T12:54:07.590Z,1.40
2022-09-25T12:56:43.846Z,1.38
2022-09-25T12:59:16.817Z,1.30
2022-09-25T13:01:54.073Z,1.60
2022-09-25T13:04:36.276Z,1.45
2022-09-25T13:07:11.083Z,1.50
2022-09-25T13:09:44.901Z,1.50
2022-09-25T13:12:27.510Z,1.75
2022-09-25T13:14:59.999Z,1.58
2022-09-25T13:17:28.520Z,1.88
2022-09-25T13:20:37.225Z,1.90
2022-09-25T13:23:10.292Z,2.10
2022-09-25T13:25:43.185Z,1.90
2022-09-25T13:28:30.219Z,2.08
2022-09-25T13:31:08.062Z,2.03
2022-09-25T13:33:43.484Z,1.90
2022-09-25T13:36:23.292Z,2.03
2022-09-25T13:39:11.994Z,1.63
2022-09-25T13:41:50.542Z,1.90
2022-09-25T13:44:59.013Z,1.60
2022-09-25T13:48:04.475Z,1.60
2022-09-25T13:50:43.592Z,1.60
2022-09-25T13:53:21.634Z,1.30
2022-09-25T13:56:24.108Z,1.52
2022-09-25T13:59:24.963Z,1.50
2022-09-25T14:01:59.710Z,1.40
2022-09-25T14:04:33.849Z,1.27
2022-09-25T14:07:13.023Z,1.17
2022-09-25T14:09:45.788Z,1.10
2022-09-25T14:12:24.865Z,1.80
2022-09-25T14:14:57.788Z,1.58
2022-09-25T14:17:30.220Z,1.20
2022-09-25T14:20:02.075Z,1.48
2022-09-25T14:22:34.952Z,1.30
2022-09-25T14:25:03.352Z,1.60
2022-09-25T14:27:31.180Z,1.95
2022-09-25T14:30:08.612Z,1.90
2022-09-25T14:32:55.474Z,1.75
2022-09-25T14:35:36.704Z,1.73
2022-09-25T14:38:20.327Z,1.90
2022-09-25T14:41:05.219Z,1.85
2022-09-25T14:43:52.765Z,1.67
2022-09-25T14:46:23.163Z,1.60
2022-09-25T14:48:54.752Z,1.60
2022-09-25T14:51:27.717Z,1.48
2022-09-25T14:53:59.612Z,1.48
2022-09-25T14:56:34.456Z,1.48
2022-09-25T14:59:10.260Z,1.75
2022-09-25T15:01:47.133Z,1.90
2022-09-25T15:04:26.932Z,1.73
2022-09-25T15:07:16.965Z,1.63
2022-09-25T15:09:48.479Z,1.85
2022-09-25T15:12:21.387Z,1.58
2022-09-25T15:15:03.679Z,2.00
2022-09-25T15:17:32.331Z,2.03
2022-09-25T15:20:04.166Z,1.83
2022-09-25T15:22:38.450Z,1.67
2022-09-25T15:25:16.018Z,2.10
2022-09-25T15:27:44.176Z,2.25
2022-09-25T15:30:17.150Z,2.03
2022-09-25T15:32:50.652Z,2.03
2022-09-25T15:35:27.329Z,2.60
2022-09-25T15:38:09.210Z,7.93
2022-09-25T15:40:37.746Z,10.13
2022-09-25T15:43:13.290Z,5.03
2022-09-25T15:45:45.742Z,2.50
2022-09-25T15:48:25.055Z,4.30
2022-09-25T15:50:54.484Z,4.60
2022-09-25T15:53:28.949Z,2.50
2022-09-25T15:56:18.822Z,2.10
2022-09-25T15:58:50.200Z,2.15
2022-09-25T16:01:44.482Z,2.10
2022-09-25T16:04:54.828Z,2.50
2022-09-25T16:07:29.528Z,2.47
2022-09-25T16:10:00.536Z,2.38
2022-09-25T16:12:32.026Z,2.03
2022-09-25T16:15:41.252Z,2.45
2022-09-25T16:18:26.902Z,2.45
2022-09-25T16:21:01.672Z,2.20
2022-09-25T16:23:31.539Z,2.70
2022-09-25T16:26:02.015Z,2.63
2022-09-25T16:28:33.017Z,2.67
2022-09-25T16:31:02.992Z,2.53
2022-09-25T16:33:33.723Z,2.65
2022-09-25T16:36:14.492Z,2.63
2022-09-25T16:39:05.512Z,2.80
2022-09-25T16:41:37.288Z,2.75
2022-09-25T16:44:14.547Z,2.30
2022-09-25T16:46:43.452Z,2.78
2022-09-25T16:49:12.810Z,2.78
2022-09-25T16:51:46.134Z,4.95
2022-09-25T16:54:16.520Z,6.53
2022-09-25T16:56:48.351Z,5.28
2022-09-25T16:59:18.597Z,5.60
2022-09-25T17:01:48.060Z,5.25
2022-09-25T17:04:18.287Z,5.97
2022-09-25T17:06:47.476Z,4.72
2022-09-25T17:09:17.117Z,5.07
2022-09-25T17:11:54.330Z,5.57
2022-09-25T17:14:24.339Z,5.63
2022-09-25T17:16:53.063Z,4.85
2022-09-25T17:19:22.115Z,5.03
2022-09-25T17:21:52.165Z,5.78
2022-09-25T17:24:23.334Z,4.70
2022-09-25T17:26:52.851Z,5.07
2022-09-25T17:29:21.486Z,4.82
2022-09-25T17:31:49.639Z,4.85
2022-09-25T17:34:18.841Z,4.82
2022-09-25T17:36:46.661Z,4.70
2022-09-25T17:39:14.763Z,4.75
2022-09-25T17:41:43.265Z,5.35
2022-09-25T17:44:17.220Z,5.07
2022-09-25T17:46:45.321Z,4.93
2022-09-25T17:49:13.546Z,6.15
2022-09-25T17:51:41.973Z,5.70
2022-09-25T17:54:11.918Z,5.82
2022-09-25T17:56:40.417Z,5.45
2022-09-25T17:59:09.128Z,6.07
2022-09-25T18:01:39.917Z,5.70
2022-09-25T18:04:20.300Z,6.05
2022-09-25T18:06:48.638Z,6.20
2022-09-25T18:09:16.704Z,6.50
2022-09-25T18:11:45.105Z,6.43
2022-09-25T18:14:14.041Z,6.72
2022-09-25T18:16:45.734Z,6.75
2022-09-25T18:19:36.050Z,7.40
2022-09-25T18:22:21.924Z,7.60
2022-09-25T18:24:53.079Z,8.43
2022-09-25T18:27:21.678Z,8.10
2022-09-25T18:29:49.571Z,8.20
2022-09-25T18:32:18.901Z,8.98
2022-09-25T18:34:46.743Z,8.20
2022-09-25T18:37:14.962Z,7.70
2022-09-25T18:39:43.583Z,7.70
2022-09-25T18:42:11.505Z,8.18
2022-09-25T18:44:42.695Z,7.68
2022-09-25T18:47:11.659Z,8.40
2022-09-25T18:49:41.177Z,8.00
2022-09-25T18:52:09.107Z,8.50
2022-09-25T18:54:36.975Z,8.32
2022-09-25T18:57:05.103Z,8.60
2022-09-25T18:59:33.055Z,8.32
2022-09-25T19:02:01.366Z,8.40
2022-09-25T19:04:29.437Z,8.80
2022-09-25T19:06:58.815Z,9.82
2022-09-25T19:09:27.805Z,9.23
2022-09-25T19:11:56.280Z,8.77
2022-09-25T19:14:25.007Z,9.80
2022-09-25T19:16:56.599Z,10.00
2022-09-25T19:19:24.430Z,10.55
2022-09-25T19:21:52.285Z,10.63
2022-09-25T19:24:21.996Z,11.02
2022-09-25T19:26:50.473Z,10.70
2022-09-25T19:29:18.354Z,10.02
2022-09-25T19:31:46.362Z,10.98
2022-09-25T19:34:14.397Z,11.68
2022-09-25T19:36:42.408Z,10.52
2022-09-25T19:39:10.559Z,10.88
2022-09-25T19:41:41.093Z,11.07
2022-09-25T19:44:13.210Z,11.90
2022-09-25T19:46:42.230Z,11.38
2022-09-25T19:49:10.497Z,10.98
2022-09-25T19:51:40.405Z,11.63
2022-09-25T19:54:11.659Z,10.60
2022-09-25T19:56:46.252Z,10.65
2022-09-25T19:59:16.111Z,11.00
2022-09-25T20:01:45.234Z,9.80
2022-09-25T20:04:18.317Z,10.63
2022-09-25T20:06:47.543Z,11.25
2022-09-25T20:09:15.860Z,10.82
2022-09-25T20:11:50.267Z,10.90
2022-09-25T20:14:20.529Z,10.65
2022-09-25T20:16:48.612Z,10.93
2022-09-25T20:19:19.315Z,10.10
2022-09-25T20:21:47.540Z,9.80
2022-09-25T20:24:15.788Z,10.35
2022-09-25T20:26:44.986Z,10.70
2022-09-25T20:29:15.151Z,10.55
2022-09-25T20:31:44.693Z,9.75
2022-09-25T20:34:14.229Z,10.45
2022-09-25T20:36:42.257Z,10.50
2022-09-25T20:39:10.743Z,10.77
2022-09-25T20:41:39.026Z,10.48
2022-09-25T20:44:08.887Z,10.90
2022-09-25T20:46:37.062Z,10.70
2022-09-25T20:49:05.147Z,10.93
2022-09-25T20:51:35.300Z,10.15
2022-09-25T20:54:05.283Z,10.95
2022-09-25T20:56:34.481Z,10.98
2022-09-25T20:59:02.964Z,10.43
2022-09-25T21:01:36.814Z,11.05
2022-09-25T21:04:08.046Z,10.77
2022-09-25T21:06:41.890Z,11.57
2022-09-25T21:09:14.191Z,11.55
2022-09-25T21:11:43.799Z,12.15
2022-09-25T21:14:16.541Z,11.30
2022-09-25T21:16:46.383Z,11.93
2022-09-25T21:19:16.395Z,10.90
2022-09-25T21:21:44.657Z,11.48
2022-09-25T21:24:15.579Z,10.20
2022-09-25T21:26:43.687Z,11.30
2022-09-25T21:29:13.451Z,11.35
2022-09-25T21:31:49.017Z,11.60
2022-09-25T21:34:19.565Z,11.95
2022-09-25T21:36:48.131Z,13.15
2022-09-25T21:39:16.402Z,11.75
2022-09-25T21:41:44.953Z,10.75
2022-09-25T21:44:17.985Z,10.10
2022-09-25T21:46:46.089Z,10.88
2022-09-25T21:49:20.435Z,10.25
2022-09-25T21:51:49.554Z,10.93
2022-09-25T21:54:17.905Z,11.18
2022-09-25T21:56:45.962Z,11.20
2022-09-25T21:59:14.357Z,11.10
2022-09-25T22:01:43.146Z,12.65
2022-09-25T22:04:14.411Z,12.00
2022-09-25T22:06:45.676Z,12.60
2022-09-25T22:09:16.826Z,11.80
2022-09-25T22:11:47.991Z,10.75
2022-09-25T22:14:16.845Z,10.98
2022-09-25T22:16:49.190Z,11.57
2022-09-25T22:19:22.095Z,12.38
2022-09-25T22:21:52.728Z,12.93
2022-09-25T22:24:20.914Z,12.88
2022-09-25T22:26:51.593Z,12.13
2022-09-25T22:29:31.678Z,12.30
2022-09-25T22:31:59.784Z,11.73
2022-09-25T22:34:29.762Z,11.48
2022-09-25T22:37:02.063Z,11.70
2022-09-25T22:39:30.774Z,12.00
2022-09-25T22:41:59.099Z,12.88
2022-09-25T22:44:30.191Z,11.27
2022-09-25T22:47:02.408Z,10.73
2022-09-25T22:49:32.050Z,12.80
2022-09-25T22:52:01.632Z,12.32
2022-09-25T22:54:29.526Z,11.65
2022-09-25T22:56:57.604Z,12.82
2022-09-25T22:59:28.377Z,12.07
2022-09-25T23:01:56.942Z,13.48
2022-09-25T23:04:29.772Z,11.38
2022-09-25T23:06:57.992Z,12.35
2022-09-25T23:09:27.319Z,13.95
2022-09-25T23:11:56.615Z,15.23
2022-09-25T23:14:26.998Z,15.63
2022-09-25T23:16:55.520Z,15.85
2022-09-25T23:19:24.429Z,15.75
2022-09-25T23:21:53.646Z,17.17
2022-09-25T23:24:22.559Z,14.82
2022-09-25T23:26:52.124Z,15.05
2022-09-25T23:29:21.832Z,13.60
2022-09-25T23:31:50.522Z,14.05
2022-09-25T23:34:19.940Z,15.27
2022-09-25T23:36:48.049Z,14.48
2022-09-25T23:39:18.098Z,14.55
2022-09-25T23:41:46.473Z,15.80
2022-09-25T23:44:16.181Z,15.50
2022-09-25T23:46:45.022Z,15.80
2022-09-25T23:49:13.113Z,15.52
2022-09-25T23:51:43.173Z,13.98
2022-09-25T23:54:12.188Z,15.10
2022-09-25T23:56:41.232Z,14.25
2022-09-25T23:59:12.299Z,13.60
